Time;durP1;ratioP1;P1;durP2;ratioP2;P2;SDS_P1;SDS_P2;PMS_P1;PMS_P2;Temp;Humidity;BMP_temperature;BMP_pressure;BME280_temperature;BME280_humidity;BME280_pressure;Samples;Min_cycle;Max_cycle;Signal;HPM_P1;HPM_P2
2023/07/23 00:00:32;;;;;;;11.15;7.53;;;14.70;99.90;;;;;;5063016;28;20048;-50
2023/07/23 00:02:57;;;;;;;12.73;6.90;;;14.60;99.90;;;;;;5062650;28;20047;-50
2023/07/23 00:05:24;;;;;;;12.18;7.50;;;14.60;99.90;;;;;;5062552;28;20044;-50
2023/07/23 00:07:50;;;;;;;9.07;7.32;;;14.50;99.90;;;;;;5063215;28;20133;-47
2023/07/23 00:10:16;;;;;;;10.95;7.47;;;14.50;99.90;;;;;;5062947;28;20178;-48
2023/07/23 00:12:42;;;;;;;11.02;7.63;;;14.60;99.90;;;;;;5060578;28;20108;-49
2023/07/23 00:15:08;;;;;;;13.77;7.35;;;14.60;99.90;;;;;;5057010;28;20391;-48
2023/07/23 00:17:34;;;;;;;11.13;7.32;;;14.60;99.90;;;;;;5046269;28;20425;-47
2023/07/23 00:19:59;;;;;;;10.18;7.25;;;14.50;99.90;;;;;;5042687;28;20245;-51
2023/07/23 00:22:25;;;;;;;11.68;8.25;;;14.50;99.90;;;;;;5042107;28;20037;-49
2023/07/23 00:24:56;;;;;;;11.02;7.57;;;14.50;99.90;;;;;;5042839;28;20045;-48
2023/07/23 00:27:25;;;;;;;10.93;7.35;;;14.40;99.90;;;;;;5061401;28;20040;-50
2023/07/23 00:29:51;;;;;;;12.18;7.28;;;14.40;99.90;;;;;;5062491;28;20114;-47
2023/07/23 00:32:17;;;;;;;10.98;7.53;;;14.50;99.90;;;;;;5062442;28;20106;-49
2023/07/23 00:34:42;;;;;;;10.85;6.40;;;14.40;99.90;;;;;;5063443;28;20051;-51
2023/07/23 00:37:09;;;;;;;10.27;6.45;;;14.40;99.90;;;;;;5062539;28;20047;-51
2023/07/23 00:39:34;;;;;;;10.68;6.35;;;14.40;99.90;;;;;;5062482;28;20076;-50
2023/07/23 00:42:00;;;;;;;10.63;6.47;;;14.40;99.90;;;;;;5061720;28;20614;-49
2023/07/23 00:44:26;;;;;;;9.98;7.05;;;14.30;99.90;;;;;;5063116;28;20045;-51
2023/07/23 00:46:52;;;;;;;12.60;7.38;;;14.30;99.90;;;;;;5062890;28;20495;-49
2023/07/23 00:49:18;;;;;;;12.98;6.82;;;14.30;99.90;;;;;;5066971;28;20455;-49
2023/07/23 00:51:45;;;;;;;11.75;7.25;;;14.30;99.90;;;;;;5066014;28;20116;-50
2023/07/23 00:54:12;;;;;;;12.20;7.70;;;14.30;99.90;;;;;;5066427;28;20052;-48
2023/07/23 00:56:40;;;;;;;10.57;7.32;;;14.20;99.90;;;;;;5065584;28;20044;-47
2023/07/23 00:59:07;;;;;;;12.40;7.18;;;14.30;99.90;;;;;;5065606;28;20040;-47
2023/07/23 01:01:32;;;;;;;11.38;7.57;;;14.20;99.90;;;;;;5065242;28;20141;-49
2023/07/23 01:03:58;;;;;;;10.95;7.50;;;14.20;99.90;;;;;;5066191;28;20082;-47
2023/07/23 01:06:25;;;;;;;14.30;6.68;;;14.30;99.90;;;;;;5065849;28;20053;-48
2023/07/23 01:08:53;;;;;;;11.40;7.15;;;14.20;99.90;;;;;;5065689;28;20087;-49
2023/07/23 01:11:19;;;;;;;11.30;7.20;;;14.30;99.90;;;;;;5064378;28;20114;-48
2023/07/23 01:13:44;;;;;;;12.50;7.47;;;14.60;99.90;;;;;;5063740;28;20044;-48
2023/07/23 01:16:10;;;;;;;12.52;8.45;;;14.10;99.90;;;;;;5056838;28;20043;-52
2023/07/23 01:18:40;;;;;;;14.75;9.23;;;14.30;99.90;;;;;;5065403;28;20640;-47
2023/07/23 01:21:06;;;;;;;14.63;8.23;;;14.20;99.90;;;;;;5065882;28;20422;-47
2023/07/23 01:23:32;;;;;;;13.05;8.57;;;14.10;99.90;;;;;;5065415;28;20048;-49
2023/07/23 01:25:58;;;;;;;18.38;7.65;;;14.20;99.90;;;;;;5062628;28;20050;-47
2023/07/23 01:28:24;;;;;;;15.07;9.50;;;14.10;99.90;;;;;;5065506;28;20386;-50
2023/07/23 01:30:54;;;;;;;12.20;8.07;;;14.10;99.90;;;;;;5066039;28;20097;-48
2023/07/23 01:33:20;;;;;;;12.85;8.45;;;14.20;99.90;;;;;;5065940;28;20360;-47
2023/07/23 01:35:46;;;;;;;11.02;7.90;;;14.20;99.90;;;;;;5065486;28;20059;-47
2023/07/23 01:38:13;;;;;;;15.05;8.52;;;14.20;99.90;;;;;;5064867;28;20041;-48
2023/07/23 01:40:40;;;;;;;12.90;7.78;;;14.20;99.90;;;;;;5061180;28;20041;-47
2023/07/23 01:43:06;;;;;;;14.02;8.32;;;14.20;99.90;;;;;;5055173;28;20142;-47
2023/07/23 01:45:32;;;;;;;13.95;8.32;;;14.20;99.90;;;;;;5045468;28;20084;-49
2023/07/23 01:47:58;;;;;;;12.32;8.43;;;14.20;99.90;;;;;;5045794;28;20519;-49
2023/07/23 01:50:24;;;;;;;12.77;7.43;;;14.10;99.90;;;;;;5045272;28;20094;-47
2023/07/23 01:52:50;;;;;;;14.02;8.48;;;14.10;99.90;;;;;;5044743;28;20047;-47
2023/07/23 01:55:15;;;;;;;13.13;8.45;;;14.10;99.90;;;;;;5045997;28;20139;-47
2023/07/23 01:57:41;;;;;;;17.85;9.13;;;14.10;99.90;;;;;;5043931;28;20137;-49
2023/07/23 02:00:08;;;;;;;12.30;8.25;;;14.10;99.90;;;;;;5044188;28;20501;-47
2023/07/23 02:02:34;;;;;;;14.80;7.75;;;14.20;99.90;;;;;;5045395;28;20041;-47
2023/07/23 02:04:59;;;;;;;12.35;7.93;;;14.20;99.90;;;;;;5045261;28;20044;-47
2023/07/23 02:07:25;;;;;;;11.63;7.15;;;14.20;99.90;;;;;;5044911;28;20460;-48
2023/07/23 02:09:51;;;;;;;9.98;6.88;;;14.20;99.90;;;;;;5044576;28;20059;-47
2023/07/23 02:12:17;;;;;;;14.20;7.75;;;14.30;99.90;;;;;;5044987;28;20041;-47
2023/07/23 02:14:43;;;;;;;12.05;7.32;;;14.20;99.90;;;;;;5050072;28;20037;-48
2023/07/23 02:17:09;;;;;;;11.85;6.90;;;14.30;99.90;;;;;;5051373;28;20545;-49
2023/07/23 02:19:36;;;;;;;10.98;6.85;;;14.20;99.90;;;;;;5045066;28;20369;-47
2023/07/23 02:22:02;;;;;;;12.73;7.15;;;14.40;99.90;;;;;;5044407;28;20044;-46
2023/07/23 02:24:28;;;;;;;9.05;5.35;;;14.30;99.90;;;;;;5044903;28;20052;-47
2023/07/23 02:26:53;;;;;;;11.30;7.22;;;14.30;99.90;;;;;;5043439;28;20135;-48
2023/07/23 02:29:19;;;;;;;11.82;6.40;;;14.20;99.90;;;;;;5044872;28;20777;-49
2023/07/23 02:31:45;;;;;;;9.90;6.88;;;14.30;99.90;;;;;;5044898;28;20041;-47
2023/07/23 02:34:13;;;;;;;10.45;6.90;;;14.30;99.90;;;;;;5043766;28;20048;-48
2023/07/23 02:36:39;;;;;;;10.30;5.78;;;14.40;99.90;;;;;;5044592;28;20115;-47
2023/07/23 02:39:04;;;;;;;12.13;7.47;;;14.30;99.90;;;;;;5044497;28;20037;-48
2023/07/23 02:41:30;;;;;;;12.48;6.65;;;14.30;99.90;;;;;;5042375;28;20041;-49
2023/07/23 02:43:55;;;;;;;11.38;7.18;;;14.20;99.90;;;;;;5044336;28;20056;-48
2023/07/23 02:46:21;;;;;;;12.07;7.15;;;14.20;99.90;;;;;;5044683;28;20128;-47
2023/07/23 02:48:47;;;;;;;12.63;6.95;;;14.40;99.90;;;;;;5044462;28;20041;-47
2023/07/23 02:51:12;;;;;;;10.43;6.65;;;14.30;99.90;;;;;;5043760;28;20049;-47
2023/07/23 02:53:39;;;;;;;10.57;6.30;;;14.20;99.90;;;;;;5042898;28;20420;-48
2023/07/23 02:56:05;;;;;;;10.93;6.80;;;14.20;99.90;;;;;;5043831;28;20451;-51
2023/07/23 02:58:31;;;;;;;11.15;7.22;;;14.20;99.90;;;;;;5043866;28;20045;-50
2023/07/23 03:00:57;;;;;;;10.65;7.38;;;14.20;99.90;;;;;;5044108;28;20080;-48
2023/07/23 03:03:23;;;;;;;10.90;6.97;;;14.20;99.90;;;;;;5043993;28;20076;-48
2023/07/23 03:05:48;;;;;;;12.50;7.10;;;14.10;99.90;;;;;;5044550;28;20071;-51
2023/07/23 03:08:14;;;;;;;12.82;8.18;;;14.20;99.90;;;;;;5042712;28;20120;-48
2023/07/23 03:10:40;;;;;;;13.15;8.45;;;14.20;99.90;;;;;;5042222;28;20059;-48
2023/07/23 03:13:07;;;;;;;12.38;8.25;;;14.10;99.90;;;;;;5043979;28;20523;-48
2023/07/23 03:15:34;;;;;;;12.23;8.30;;;14.10;99.90;;;;;;5054949;28;20119;-49
2023/07/23 03:18:00;;;;;;;11.38;7.40;;;14.20;99.90;;;;;;5042493;28;20037;-51
2023/07/23 03:20:26;;;;;;;13.32;8.38;;;14.20;99.90;;;;;;5043887;28;20094;-48
2023/07/23 03:22:51;;;;;;;13.63;7.55;;;14.20;99.90;;;;;;5043463;28;20048;-48
2023/07/23 03:25:17;;;;;;;15.85;9.88;;;14.20;99.90;;;;;;5042584;28;20124;-47
2023/07/23 03:27:43;;;;;;;13.02;8.00;;;14.20;99.90;;;;;;5043615;28;20116;-48
2023/07/23 03:30:09;;;;;;;13.05;7.75;;;14.30;99.90;;;;;;5043569;28;20432;-48
2023/07/23 03:32:35;;;;;;;12.93;7.25;;;14.30;99.90;;;;;;5043603;28;20094;-48
2023/07/23 03:35:01;;;;;;;11.25;7.78;;;14.30;99.90;;;;;;5042955;28;20460;-47
2023/07/23 03:37:27;;;;;;;13.82;7.25;;;14.30;99.90;;;;;;5043281;28;20108;-47
2023/07/23 03:39:52;;;;;;;14.75;7.15;;;14.40;99.90;;;;;;5043527;28;20040;-49
2023/07/23 03:42:18;;;;;;;13.55;7.82;;;14.30;99.90;;;;;;5041863;28;20095;-48
2023/07/23 03:44:44;;;;;;;13.57;8.77;;;14.20;99.90;;;;;;5042002;28;20459;-51
2023/07/23 03:47:14;;;;;;;13.65;9.07;;;14.20;99.90;;;;;;5058672;28;20040;-49
2023/07/23 03:49:41;;;;;;;14.32;9.05;;;14.20;99.90;;;;;;5042489;28;20055;-50
2023/07/23 03:52:07;;;;;;;14.80;8.77;;;14.20;99.90;;;;;;5043078;28;20055;-48
2023/07/23 03:54:33;;;;;;;16.48;8.68;;;14.20;99.90;;;;;;5043354;28;20049;-50
2023/07/23 03:56:59;;;;;;;14.52;8.35;;;14.50;99.90;;;;;;5042010;28;20041;-49
2023/07/23 03:59:38;;;;;;;16.35;9.55;;;14.20;99.90;;;;;;5041578;28;20168;-48
2023/07/23 04:02:05;;;;;;;14.05;9.00;;;14.20;99.90;;;;;;5042991;28;20048;-50
2023/07/23 04:04:31;;;;;;;13.85;8.63;;;14.20;99.90;;;;;;5058016;28;20045;-51
2023/07/23 04:06:56;;;;;;;15.63;8.98;;;14.20;99.90;;;;;;5042462;28;20049;-48
2023/07/23 04:09:22;;;;;;;16.38;10.05;;;14.30;99.90;;;;;;5058091;28;20061;-48
2023/07/23 04:11:48;;;;;;;17.55;10.13;;;14.30;99.90;;;;;;5041872;28;20497;-48
2023/07/23 04:14:13;;;;;;;15.13;8.80;;;14.30;99.90;;;;;;5044499;28;20048;-48
2023/07/23 04:16:39;;;;;;;12.13;9.10;;;14.30;99.90;;;;;;5050226;28;20044;-48
2023/07/23 04:19:04;;;;;;;13.05;9.25;;;14.30;99.90;;;;;;5042450;28;20486;-50
2023/07/23 04:21:30;;;;;;;15.60;9.15;;;14.30;99.90;;;;;;5042638;28;20040;-46
2023/07/23 04:23:57;;;;;;;16.90;9.38;;;14.40;99.90;;;;;;5041473;28;20060;-47
2023/07/23 04:26:26;;;;;;;13.45;8.30;;;14.30;99.90;;;;;;5041886;28;20056;-49
2023/07/23 04:28:52;;;;;;;16.48;8.20;;;14.30;99.90;;;;;;5043083;28;20116;-47
2023/07/23 04:31:18;;;;;;;17.98;10.20;;;14.40;99.90;;;;;;5040654;28;20481;-51
2023/07/23 04:33:44;;;;;;;14.48;9.40;;;14.30;99.90;;;;;;5043157;28;20381;-47
2023/07/23 04:36:10;;;;;;;14.68;9.68;;;14.30;99.90;;;;;;5040959;28;20051;-48
2023/07/23 04:38:36;;;;;;;13.30;9.23;;;14.30;99.90;;;;;;5041925;28;20044;-49
2023/07/23 04:41:02;;;;;;;14.02;8.75;;;14.30;99.90;;;;;;5041557;28;20366;-48
2023/07/23 04:43:27;;;;;;;15.85;9.50;;;14.30;99.90;;;;;;5042730;28;20056;-49
2023/07/23 04:45:53;;;;;;;12.52;9.07;;;14.40;99.90;;;;;;5043017;28;20124;-50
2023/07/23 04:48:19;;;;;;;14.15;9.25;;;14.30;99.90;;;;;;5042139;28;20037;-48
2023/07/23 04:50:44;;;;;;;13.57;9.60;;;14.30;99.90;;;;;;5042617;28;20053;-47
2023/07/23 04:53:10;;;;;;;14.23;9.05;;;14.30;99.90;;;;;;5041421;28;20503;-47
2023/07/23 04:55:36;;;;;;;15.45;10.18;;;14.30;99.90;;;;;;5040821;28;20515;-50
2023/07/23 04:58:02;;;;;;;18.23;9.95;;;14.40;99.90;;;;;;5042111;28;20934;-48
2023/07/23 05:00:28;;;;;;;17.58;9.48;;;14.40;99.90;;;;;;5042083;28;20044;-48
2023/07/23 05:02:54;;;;;;;13.15;8.68;;;14.40;99.90;;;;;;5042361;28;20041;-50
2023/07/23 05:05:19;;;;;;;13.88;9.27;;;14.40;99.90;;;;;;5041850;28;20103;-46
2023/07/23 05:07:45;;;;;;;13.70;10.85;;;14.50;99.90;;;;;;5041994;28;20132;-47
2023/07/23 05:10:11;;;;;;;14.40;9.27;;;14.40;99.90;;;;;;5040876;28;20081;-47
2023/07/23 05:12:38;;;;;;;15.20;9.40;;;14.40;99.90;;;;;;5041143;28;20458;-47
2023/07/23 05:15:14;;;;;;;13.30;8.73;;;14.50;99.90;;;;;;5049341;28;20041;-50
2023/07/23 05:17:41;;;;;;;13.45;8.98;;;14.50;99.90;;;;;;5044704;28;20052;-47
2023/07/23 05:20:08;;;;;;;13.75;9.80;;;14.40;99.90;;;;;;5041077;28;20064;-49
2023/07/23 05:22:39;;;;;;;14.52;9.68;;;14.50;99.90;;;;;;5041329;28;20701;-50
2023/07/23 05:25:05;;;;;;;15.57;9.85;;;14.50;99.90;;;;;;5040675;28;20468;-49
2023/07/23 05:27:31;;;;;;;14.70;10.02;;;14.50;99.90;;;;;;5040137;28;20447;-51
2023/07/23 05:29:58;;;;;;;16.17;10.77;;;14.50;99.90;;;;;;5041615;28;20037;-50
2023/07/23 05:32:24;;;;;;;16.80;10.52;;;14.50;99.90;;;;;;5041737;28;20041;-48
2023/07/23 05:34:49;;;;;;;23.25;9.70;;;14.70;99.90;;;;;;5044188;28;20045;-50
2023/07/23 05:37:15;;;;;;;14.50;9.68;;;14.60;99.90;;;;;;5042791;28;20056;-52
2023/07/23 05:39:40;;;;;;;14.32;9.63;;;14.50;99.90;;;;;;5044654;28;20041;-51
2023/07/23 05:42:06;;;;;;;14.48;9.90;;;14.50;99.90;;;;;;5044245;28;20047;-48
2023/07/23 05:44:32;;;;;;;13.45;10.77;;;14.50;99.90;;;;;;5044582;28;20086;-50
2023/07/23 05:46:58;;;;;;;18.42;11.13;;;14.50;99.90;;;;;;5045392;28;20044;-49
2023/07/23 05:49:25;;;;;;;14.95;9.75;;;14.50;99.90;;;;;;5045323;28;20587;-48
2023/07/23 05:51:51;;;;;;;18.90;10.35;;;14.60;99.90;;;;;;5051550;28;20120;-46
2023/07/23 05:54:16;;;;;;;14.98;9.90;;;14.60;99.90;;;;;;5053331;28;20068;-48
2023/07/23 05:56:42;;;;;;;14.20;9.65;;;14.60;99.90;;;;;;5044654;28;20044;-49
2023/07/23 05:59:08;;;;;;;15.50;10.00;;;14.60;99.90;;;;;;5044963;28;20575;-50
2023/07/23 06:01:33;;;;;;;16.27;9.80;;;14.60;99.90;;;;;;5044770;28;20036;-49
2023/07/23 06:03:59;;;;;;;14.35;10.27;;;14.60;99.90;;;;;;5045147;28;20459;-48
2023/07/23 06:06:25;;;;;;;14.23;10.52;;;14.70;99.90;;;;;;5045262;28;20115;-48
2023/07/23 06:08:50;;;;;;;15.88;9.93;;;14.60;99.90;;;;;;5044876;28;20446;-48
2023/07/23 06:11:16;;;;;;;14.32;10.05;;;14.70;99.90;;;;;;5043578;28;20494;-49
2023/07/23 06:13:42;;;;;;;14.90;10.38;;;15.00;99.90;;;;;;5044348;28;20431;-47
2023/07/23 06:16:07;;;;;;;16.08;9.90;;;14.80;99.90;;;;;;5055711;28;20049;-50
2023/07/23 06:18:36;;;;;;;16.02;9.98;;;14.80;99.90;;;;;;5045307;28;20041;-46
2023/07/23 06:21:02;;;;;;;14.32;10.50;;;14.80;99.90;;;;;;5044653;28;20045;-48
2023/07/23 06:23:28;;;;;;;15.55;10.40;;;14.80;99.90;;;;;;5045075;28;20468;-54
2023/07/23 06:25:57;;;;;;;15.75;10.00;;;14.80;99.90;;;;;;5041905;28;20064;-55
2023/07/23 06:28:23;;;;;;;17.77;10.88;;;14.80;99.90;;;;;;5044174;28;20176;-54
2023/07/23 06:30:53;;;;;;;18.67;10.73;;;14.90;99.90;;;;;;5044835;28;20112;-55
2023/07/23 06:33:18;;;;;;;17.55;11.07;;;15.10;99.90;;;;;;5044501;28;20075;-53
2023/07/23 06:35:44;;;;;;;16.88;11.05;;;14.90;99.90;;;;;;5044118;28;20045;-54
2023/07/23 06:38:10;;;;;;;17.35;11.55;;;15.00;99.90;;;;;;5043986;28;20048;-53
2023/07/23 06:40:36;;;;;;;17.88;10.52;;;15.00;99.90;;;;;;5044104;28;20108;-55
2023/07/23 06:43:02;;;;;;;16.23;9.88;;;15.10;99.90;;;;;;5044772;28;20037;-53
2023/07/23 06:45:28;;;;;;;13.95;10.52;;;15.00;99.90;;;;;;5044443;28;20049;-53
2023/07/23 06:47:54;;;;;;;16.20;10.85;;;15.10;99.90;;;;;;5045090;28;20040;-52
2023/07/23 06:50:20;;;;;;;13.90;10.13;;;15.10;99.90;;;;;;5043666;28;20045;-54
2023/07/23 06:52:47;;;;;;;16.95;10.15;;;15.10;99.90;;;;;;5044346;28;20106;-54
2023/07/23 06:55:13;;;;;;;16.55;10.48;;;15.20;99.90;;;;;;5042333;28;20087;-53
2023/07/23 06:57:41;;;;;;;16.25;12.98;;;15.20;99.90;;;;;;5042855;28;20076;-55
2023/07/23 07:00:08;;;;;;;16.80;10.75;;;15.30;99.90;;;;;;5042947;28;20045;-54
2023/07/23 07:02:34;;;;;;;14.50;10.05;;;15.30;99.90;;;;;;5044314;28;20099;-55
2023/07/23 07:05:00;;;;;;;13.93;10.63;;;15.30;99.90;;;;;;5042378;28;20060;-52
2023/07/23 07:07:25;;;;;;;14.90;8.63;;;15.30;99.90;;;;;;5043866;28;20836;-52
2023/07/23 07:09:53;;;;;;;14.30;9.57;;;15.40;99.90;;;;;;5041206;28;20049;-52
2023/07/23 07:12:18;;;;;;;16.45;10.50;;;15.40;99.90;;;;;;5043859;28;20048;-51
2023/07/23 07:14:44;;;;;;;16.50;10.80;;;15.40;99.90;;;;;;5048203;28;20447;-51
2023/07/23 07:17:10;;;;;;;15.80;10.23;;;15.50;99.90;;;;;;5051876;28;20473;-53
2023/07/23 07:19:35;;;;;;;16.25;10.25;;;15.40;99.90;;;;;;5046336;28;20049;-55
2023/07/23 07:22:01;;;;;;;16.92;9.77;;;15.50;99.90;;;;;;5043953;28;20477;-51
2023/07/23 07:24:27;;;;;;;14.70;10.23;;;15.50;99.90;;;;;;5043961;28;20407;-52
2023/07/23 07:26:53;;;;;;;14.50;10.25;;;15.50;99.90;;;;;;5045936;28;20056;-52
2023/07/23 07:29:19;;;;;;;15.40;9.82;;;15.50;99.90;;;;;;5055278;28;20037;-54
2023/07/23 07:31:45;;;;;;;12.27;8.77;;;15.50;99.90;;;;;;5053408;28;20396;-53
2023/07/23 07:34:11;;;;;;;15.45;10.63;;;15.50;99.90;;;;;;5053288;28;20051;-54
2023/07/23 07:36:38;;;;;;;15.50;10.52;;;15.40;99.90;;;;;;5053228;28;20044;-52
2023/07/23 07:39:04;;;;;;;13.63;10.02;;;15.50;99.90;;;;;;5039344;28;20120;-53
2023/07/23 07:41:30;;;;;;;15.38;9.55;;;15.40;99.90;;;;;;5050422;28;20086;-52
2023/07/23 07:43:56;;;;;;;16.52;10.13;;;15.60;99.90;;;;;;5050572;28;20064;-51
2023/07/23 07:46:23;;;;;;;14.70;9.15;;;15.70;99.90;;;;;;5054510;28;20444;-48
2023/07/23 07:48:49;;;;;;;16.17;9.75;;;15.60;99.90;;;;;;5054082;28;20057;-48
2023/07/23 07:51:14;;;;;;;13.73;9.88;;;15.50;99.90;;;;;;5051715;28;20028;-49
2023/07/23 07:53:40;;;;;;;18.52;10.63;;;15.60;99.90;;;;;;5053853;28;20048;-49
2023/07/23 07:56:12;;;;;;;16.67;10.30;;;15.60;99.90;;;;;;5049731;28;20079;-51
2023/07/23 07:58:38;;;;;;;15.00;10.93;;;15.70;99.90;;;;;;5051464;28;20051;-49
2023/07/23 08:01:04;;;;;;;16.75;11.63;;;15.70;99.90;;;;;;5053856;28;20045;-49
2023/07/23 08:03:31;;;;;;;21.30;10.85;;;15.70;99.90;;;;;;5056059;28;20036;-51
2023/07/23 08:05:58;;;;;;;15.15;10.48;;;15.60;99.90;;;;;;5051742;28;20140;-51
2023/07/23 08:08:29;;;;;;;16.23;10.18;;;15.80;99.90;;;;;;5053184;28;20043;-51
2023/07/23 08:10:56;;;;;;;16.20;10.00;;;15.70;99.90;;;;;;5048604;28;20140;-52
2023/07/23 08:13:22;;;;;;;16.00;10.50;;;15.70;99.90;;;;;;5051195;28;20408;-48
2023/07/23 08:15:48;;;;;;;15.32;10.25;;;15.80;99.90;;;;;;5054948;28;20036;-49
2023/07/23 08:18:17;;;;;;;15.60;9.57;;;15.80;99.90;;;;;;5051381;28;20081;-51
2023/07/23 08:20:43;;;;;;;16.15;10.63;;;15.90;99.90;;;;;;5053005;28;20130;-51
2023/07/23 08:23:09;;;;;;;16.38;10.02;;;15.80;99.90;;;;;;5051873;28;20041;-51
2023/07/23 08:25:36;;;;;;;16.55;10.02;;;15.80;99.90;;;;;;5050536;28;20052;-47
2023/07/23 08:28:02;;;;;;;16.20;10.57;;;15.80;99.90;;;;;;5054498;28;20057;-48
2023/07/23 08:30:30;;;;;;;13.57;9.57;;;15.90;99.90;;;;;;5032025;28;20397;-50
2023/07/23 08:32:58;;;;;;;17.67;10.50;;;15.80;99.90;;;;;;5059779;28;20433;-48
2023/07/23 08:35:25;;;;;;;14.13;9.48;;;15.80;99.90;;;;;;5048163;28;20091;-50
2023/07/23 08:37:52;;;;;;;15.98;10.70;;;15.80;99.90;;;;;;5047667;28;20495;-48
2023/07/23 08:40:19;;;;;;;17.98;11.25;;;15.80;99.90;;;;;;5050547;28;20118;-47
2023/07/23 08:42:53;;;;;;;17.42;10.25;;;15.70;99.90;;;;;;5053287;28;20124;-50
2023/07/23 08:45:27;;;;;;;;;;;15.80;99.90;;;;;;5053905;28;20126;-48
2023/07/23 08:48:19;;;;;;;16.90;11.57;;;15.80;99.90;;;;;;5060241;28;19975;-53
2023/07/23 08:50:48;;;;;;;17.02;10.25;;;15.70;99.90;;;;;;5060350;28;20150;-50
2023/07/23 08:53:16;;;;;;;14.65;9.80;;;15.90;99.90;;;;;;5060263;28;20088;-51
2023/07/23 08:55:44;;;;;;;12.98;10.55;;;15.80;99.90;;;;;;5059961;28;20083;-50
2023/07/23 08:58:15;;;;;;;14.98;10.88;;;15.80;99.90;;;;;;5060462;28;20090;-50
2023/07/23 09:00:46;;;;;;;12.60;9.02;;;15.90;99.90;;;;;;5060022;28;20053;-49
2023/07/23 09:03:14;;;;;;;13.35;10.07;;;15.80;99.90;;;;;;5061641;28;20049;-47
2023/07/23 09:05:40;;;;;;;15.32;9.55;;;15.90;99.90;;;;;;5060044;28;20114;-49
2023/07/23 09:08:06;;;;;;;11.77;8.88;;;15.80;99.90;;;;;;5061325;28;20041;-49
2023/07/23 09:10:32;;;;;;;12.20;9.95;;;15.80;99.90;;;;;;5063683;28;20069;-52
2023/07/23 09:12:58;;;;;;;14.45;11.52;;;15.80;99.90;;;;;;5063902;28;20048;-48
2023/07/23 09:15:23;;;;;;;12.60;9.75;;;15.70;99.90;;;;;;5055775;28;20481;-48
2023/07/23 09:17:50;;;;;;;13.27;9.20;;;15.80;99.90;;;;;;5061669;28;20061;-50
2023/07/23 09:20:19;;;;;;;11.52;8.70;;;15.80;99.90;;;;;;5064886;28;20124;-49
2023/07/23 09:22:48;;;;;;;12.38;8.73;;;15.80;99.90;;;;;;5064560;28;20085;-48
2023/07/23 09:25:14;;;;;;;13.38;10.50;;;15.80;99.90;;;;;;5062810;28;20053;-49
2023/07/23 09:27:43;;;;;;;12.70;9.70;;;15.80;99.90;;;;;;5079737;28;20064;-48
2023/07/23 09:30:18;;;;;;;10.65;8.90;;;15.80;99.90;;;;;;5063897;28;20454;-48
2023/07/23 09:32:44;;;;;;;10.65;8.27;;;15.80;99.90;;;;;;5061868;28;20121;-49
2023/07/23 09:35:10;;;;;;;13.35;9.70;;;15.80;99.90;;;;;;5060488;28;20509;-50
2023/07/23 09:37:36;;;;;;;15.57;8.63;;;15.80;99.90;;;;;;5053242;28;20052;-48
2023/07/23 09:40:01;;;;;;;10.13;8.65;;;15.70;99.90;;;;;;5055448;28;20127;-48
2023/07/23 09:42:27;;;;;;;9.63;8.27;;;15.70;99.90;;;;;;5043509;28;20144;-48
2023/07/23 09:44:58;;;;;;;10.52;7.47;;;15.80;99.90;;;;;;5043135;28;20048;-49
2023/07/23 09:47:25;;;;;;;12.25;7.80;;;15.70;99.90;;;;;;5043923;28;20041;-47
2023/07/23 09:49:54;;;;;;;9.98;8.15;;;15.70;99.90;;;;;;5042202;28;20037;-49
2023/07/23 09:52:26;;;;;;;10.70;8.43;;;15.80;99.90;;;;;;5044300;28;20089;-48
2023/07/23 09:54:53;;;;;;;12.05;8.50;;;15.80;99.90;;;;;;5042840;28;20057;-50
2023/07/23 09:57:19;;;;;;;11.00;9.65;;;15.70;99.90;;;;;;5043079;28;20757;-46
2023/07/23 09:59:46;;;;;;;10.05;8.85;;;15.80;99.90;;;;;;5042059;28;20056;-46
2023/07/23 10:02:13;;;;;;;15.13;9.25;;;15.70;99.90;;;;;;5046310;28;20048;-45
2023/07/23 10:04:38;;;;;;;9.57;8.57;;;15.90;99.90;;;;;;5053397;28;20053;-49
2023/07/23 10:07:05;;;;;;;10.88;8.32;;;15.90;99.90;;;;;;5042603;28;20094;-49
2023/07/23 10:09:32;;;;;;;13.63;11.15;;;15.90;99.90;;;;;;5042454;28;20080;-44
2023/07/23 10:11:58;;;;;;;12.45;8.77;;;16.00;99.90;;;;;;5041791;28;20045;-49
2023/07/23 10:14:23;;;;;;;12.43;10.82;;;16.00;99.90;;;;;;5047862;28;20401;-50
2023/07/23 10:16:52;;;;;;;10.63;8.88;;;16.10;99.90;;;;;;5055243;28;20048;-50
2023/07/23 10:19:19;;;;;;;8.85;7.82;;;16.00;99.90;;;;;;5063924;28;20082;-47
2023/07/23 10:21:51;;;;;;;10.55;8.85;;;16.00;99.90;;;;;;5063659;28;20127;-50
2023/07/23 10:24:17;;;;;;;10.77;8.23;;;16.10;99.90;;;;;;5062405;28;20063;-49
2023/07/23 10:26:49;;;;;;;9.02;7.43;;;16.10;99.90;;;;;;5073647;28;20044;-49
2023/07/23 10:29:23;;;;;;;9.85;8.13;;;16.00;99.90;;;;;;5062372;28;20143;-49
2023/07/23 10:31:50;;;;;;;12.13;8.38;;;16.00;99.90;;;;;;5059209;28;20041;-51
2023/07/23 10:34:22;;;;;;;10.55;9.55;;;16.10;99.90;;;;;;5043842;28;20140;-47
2023/07/23 10:37:18;;;;;;;14.70;11.27;;;16.00;99.90;;;;;;5042681;28;20052;-51
2023/07/23 10:39:52;;;;;;;10.80;9.70;;;16.00;99.90;;;;;;5052787;28;20044;-47
2023/07/23 10:42:40;;;;;;;10.40;9.35;;;16.00;99.90;;;;;;5062971;28;20105;-46
2023/07/23 10:45:21;;;;;;;11.35;8.82;;;15.90;99.90;;;;;;5063158;28;20089;-50
2023/07/23 10:47:57;;;;;;;13.93;12.48;;;16.00;99.90;;;;;;5064976;28;20241;-47
2023/07/23 10:50:24;;;;;;;16.95;15.05;;;16.00;99.90;;;;;;5064878;28;20801;-48
2023/07/23 10:52:52;;;;;;;13.23;11.98;;;16.10;99.90;;;;;;5063697;28;20041;-46
2023/07/23 10:55:50;;;;;;;10.88;9.60;;;16.00;99.90;;;;;;5055032;28;20052;-51
2023/07/23 10:58:21;;;;;;;11.82;10.32;;;16.10;99.90;;;;;;5043804;28;20132;-46
2023/07/23 11:00:52;;;;;;;11.35;10.15;;;16.00;99.90;;;;;;5044796;28;20037;-50
2023/07/23 11:03:19;;;;;;;10.07;8.68;;;16.10;99.90;;;;;;5044832;28;20040;-48
2023/07/23 11:05:46;;;;;;;9.80;8.07;;;16.00;99.90;;;;;;5042546;28;20033;-48
2023/07/23 11:08:15;;;;;;;8.73;7.82;;;16.20;99.90;;;;;;5044268;28;20045;-47
2023/07/23 11:10:57;;;;;;;11.18;10.07;;;16.20;99.90;;;;;;5054687;28;20556;-48
2023/07/23 11:13:30;;;;;;;11.65;9.30;;;16.20;99.90;;;;;;5063012;28;20071;-48
2023/07/23 11:15:55;;;;;;;14.45;12.95;;;16.20;99.90;;;;;;5047323;28;20041;-49
2023/07/23 11:18:23;;;;;;;12.75;11.48;;;16.30;99.90;;;;;;5047708;28;20048;-47
2023/07/23 11:20:50;;;;;;;11.75;10.38;;;16.30;99.90;;;;;;5056596;28;20090;-50
2023/07/23 11:23:17;;;;;;;11.60;10.35;;;16.30;99.90;;;;;;5049642;28;20041;-45
2023/07/23 11:25:44;;;;;;;20.98;18.83;;;16.40;99.90;;;;;;5042883;28;20123;-48
2023/07/23 11:28:10;;;;;;;12.40;11.20;;;16.40;99.90;;;;;;5064446;28;20127;-47
2023/07/23 11:30:36;;;;;;;19.73;17.70;;;16.30;99.90;;;;;;5044825;28;20080;-49
2023/07/23 11:33:03;;;;;;;14.00;12.60;;;16.40;99.90;;;;;;5043936;28;20049;-48
2023/07/23 11:35:30;;;;;;;14.82;13.32;;;16.50;99.90;;;;;;5079119;28;20052;-45
2023/07/23 11:38:00;;;;;;;13.13;11.85;;;16.50;99.90;;;;;;5064242;28;20048;-48
2023/07/23 11:40:25;;;;;;;11.43;9.52;;;16.50;99.90;;;;;;5078760;28;20057;-51
2023/07/23 11:42:54;;;;;;;12.48;11.15;;;16.50;99.90;;;;;;5063188;28;20039;-45
2023/07/23 11:45:21;;;;;;;10.77;9.77;;;16.50;99.90;;;;;;5064100;28;20040;-47
2023/07/23 11:47:51;;;;;;;14.85;13.07;;;16.50;99.90;;;;;;5063764;28;20040;-48
2023/07/23 11:50:17;;;;;;;12.15;10.88;;;16.50;99.90;;;;;;5063150;28;20123;-49
2023/07/23 11:52:45;;;;;;;13.77;12.48;;;16.50;99.90;;;;;;5064130;28;20083;-48
2023/07/23 11:55:21;;;;;;;14.27;12.95;;;16.60;99.90;;;;;;5063316;28;20037;-48
2023/07/23 11:57:57;;;;;;;14.57;12.35;;;16.50;99.90;;;;;;5062863;28;20052;-51
2023/07/23 12:00:35;;;;;;;15.93;14.35;;;16.60;99.90;;;;;;5047567;28;20036;-47
2023/07/23 12:03:05;;;;;;;16.60;14.43;;;16.50;99.90;;;;;;5056003;28;20620;-52
2023/07/23 12:05:31;;;;;;;14.90;13.38;;;16.50;99.90;;;;;;5046171;28;20076;-47
2023/07/23 12:07:57;;;;;;;18.15;16.02;;;16.60;99.90;;;;;;5043787;28;20079;-47
2023/07/23 12:10:25;;;;;;;19.33;17.35;;;16.60;99.90;;;;;;5042501;28;20056;-49
2023/07/23 12:12:51;;;;;;;16.05;14.30;;;16.60;99.90;;;;;;5043324;28;20518;-49
2023/07/23 12:15:18;;;;;;;16.83;15.23;;;16.60;99.90;;;;;;5045109;28;20040;-49
2023/07/23 12:17:45;;;;;;;16.23;14.50;;;16.70;99.90;;;;;;5062271;28;20076;-47
2023/07/23 12:20:18;;;;;;;13.50;12.05;;;16.70;99.90;;;;;;5063044;28;20051;-47
2023/07/23 12:22:57;;;;;;;13.75;12.25;;;16.70;99.90;;;;;;5062177;28;20048;-52
2023/07/23 12:25:26;;;;;;;19.08;16.95;;;16.70;99.90;;;;;;5061788;28;20048;-49
2023/07/23 12:27:52;;;;;;;15.88;14.27;;;16.60;99.90;;;;;;5063361;28;20432;-52
2023/07/23 12:30:17;;;;;;;19.42;17.45;;;16.60;99.90;;;;;;5063369;28;20047;-47
2023/07/23 12:32:47;;;;;;;18.33;16.48;;;16.60;99.90;;;;;;5063269;28;20045;-49